Time;durP1;ratioP1;P1;durP2;ratioP2;P2;SDS_P1;SDS_P2;PMS_P1;PMS_P2;Temp;Humidity;BMP_temperature;BMP_pressure;BME280_temperature;BME280_humidity;BME280_pressure;Samples;Min_cycle;Max_cycle;Signal;HPM_P1;HPM_P2
2023/12/27 00:01:16;;;;;;;11.68;11.18;;;;;;;;;;5067243;28;20376;-57
2023/12/27 00:03:41;;;;;;;11.80;11.30;;;;;;;;;;5067243;28;20376;-58
2023/12/27 00:06:06;;;;;;;11.80;11.30;;;;;;;;;;5070153;28;20017;-58
2023/12/27 00:08:32;;;;;;;11.82;11.32;;;;;;;;;;5070945;28;20111;-55
2023/12/27 00:10:57;;;;;;;11.82;11.32;;;;;;;;;;5068876;28;20440;-58
2023/12/27 00:13:22;;;;;;;11.80;11.30;;;;;;;;;;5070572;28;20016;-58
2023/12/27 00:15:48;;;;;;;11.57;11.07;;;;;;;;;;5070187;28;20040;-56
2023/12/27 00:18:17;;;;;;;11.80;11.30;;;;;;;;;;5068408;28;20024;-56
2023/12/27 00:20:43;;;;;;;11.70;11.20;;;;;;;;;;5071365;28;20025;-54
2023/12/27 00:23:08;;;;;;;11.70;11.20;;;;;;;;;;5070897;28;20117;-57
2023/12/27 00:25:33;;;;;;;11.90;11.40;;;;;;;;;;5075220;28;20544;-55
2023/12/27 00:27:59;;;;;;;12.32;11.73;;;;;;;;;;5071535;28;20025;-57
2023/12/27 00:30:24;;;;;;;11.50;11.00;;;;;;;;;;5071118;28;20066;-57
2023/12/27 00:32:49;;;;;;;12.27;11.68;;;;;;;;;;5064833;28;20021;-58
2023/12/27 00:35:15;;;;;;;11.80;11.27;;;;;;;;;;5070997;28;20024;-56
2023/12/27 00:37:40;;;;;;;11.77;11.27;;;;;;;;;;5060708;28;20111;-58
2023/12/27 00:40:06;;;;;;;12.45;11.85;;;;;;;;;;5073667;28;20040;-57
2023/12/27 00:42:31;;;;;;;12.02;11.43;;;;;;;;;;5071359;28;20009;-58
2023/12/27 00:44:56;;;;;;;11.63;11.13;;;;;;;;;;5070424;28;20013;-54
2023/12/27 00:47:22;;;;;;;11.40;10.90;;;;;;;;;;5065695;28;20035;-55
2023/12/27 00:49:47;;;;;;;11.63;11.13;;;;;;;;;;5074662;28;20468;-59
2023/12/27 00:52:12;;;;;;;11.85;11.35;;;;;;;;;;5074178;28;20581;-58
2023/12/27 00:54:38;;;;;;;11.40;10.90;;;;;;;;;;5067388;28;20091;-56
2023/12/27 00:57:03;;;;;;;11.93;11.43;;;;;;;;;;5071244;28;20044;-56
2023/12/27 00:59:29;;;;;;;12.10;11.50;;;;;;;;;;5072661;28;20021;-57
2023/12/27 01:01:54;;;;;;;11.63;11.13;;;;;;;;;;5074563;28;20016;-55
2023/12/27 01:04:19;;;;;;;11.68;11.18;;;;;;;;;;5074556;28;20031;-57
2023/12/27 01:06:45;;;;;;;11.60;11.10;;;;;;;;;;5071570;28;20392;-57
2023/12/27 01:09:10;;;;;;;11.68;11.18;;;;;;;;;;5066652;28;20093;-55
2023/12/27 01:11:36;;;;;;;11.60;11.10;;;;;;;;;;5073805;28;20549;-57
2023/12/27 01:14:02;;;;;;;12.25;11.65;;;;;;;;;;5073746;28;20029;-57
2023/12/27 01:16:27;;;;;;;11.90;11.40;;;;;;;;;;5073525;28;20053;-56
2023/12/27 01:18:53;;;;;;;11.75;11.25;;;;;;;;;;5074399;28;20036;-56
2023/12/27 01:21:18;;;;;;;12.40;11.80;;;;;;;;;;5073918;28;20020;-54
2023/12/27 01:23:44;;;;;;;11.82;11.32;;;;;;;;;;5075337;28;20464;-57
2023/12/27 01:26:10;;;;;;;11.63;11.13;;;;;;;;;;5074565;28;20024;-59
2023/12/27 01:28:35;;;;;;;12.10;11.52;;;;;;;;;;5073481;28;20020;-55
2023/12/27 01:31:01;;;;;;;11.65;11.15;;;;;;;;;;5071720;28;20041;-56
2023/12/27 01:33:27;;;;;;;11.40;10.90;;;;;;;;;;5074438;28;20020;-57
2023/12/27 01:35:52;;;;;;;11.48;10.98;;;;;;;;;;5069943;28;20017;-57
2023/12/27 01:38:18;;;;;;;11.90;11.40;;;;;;;;;;5068613;28;20186;-57
2023/12/27 01:40:48;;;;;;;11.65;11.15;;;;;;;;;;5071972;28;20059;-56
2023/12/27 01:43:13;;;;;;;11.73;11.23;;;;;;;;;;5073775;28;20430;-57
2023/12/27 01:45:38;;;;;;;11.80;11.30;;;;;;;;;;5071359;28;20108;-58
2023/12/27 01:48:04;;;;;;;11.93;11.40;;;;;;;;;;5073997;28;20029;-56
2023/12/27 01:50:29;;;;;;;11.82;11.32;;;;;;;;;;5071747;28;20439;-57
2023/12/27 01:52:55;;;;;;;11.88;11.38;;;;;;;;;;5056020;28;20013;-56
2023/12/27 01:55:20;;;;;;;12.00;11.43;;;;;;;;;;5067298;28;20050;-56
2023/12/27 01:57:45;;;;;;;12.02;11.45;;;;;;;;;;5073636;28;20024;-56
2023/12/27 02:00:12;;;;;;;11.70;11.20;;;;;;;;;;5064301;28;20048;-55
2023/12/27 02:02:38;;;;;;;11.35;10.85;;;;;;;;;;5073331;28;20020;-57
2023/12/27 02:05:03;;;;;;;11.45;10.95;;;;;;;;;;5071295;28;20021;-58
2023/12/27 02:07:29;;;;;;;11.75;11.25;;;;;;;;;;5072743;28;20078;-58
2023/12/27 02:09:54;;;;;;;11.43;10.93;;;;;;;;;;5072055;28;20031;-57
2023/12/27 02:12:26;;;;;;;11.60;11.10;;;;;;;;;;5069533;28;20063;-57
2023/12/27 02:14:52;;;;;;;11.82;11.32;;;;;;;;;;5073397;28;20116;-55
2023/12/27 02:17:17;;;;;;;11.68;11.18;;;;;;;;;;5072844;28;20568;-57
2023/12/27 02:19:43;;;;;;;11.93;11.38;;;;;;;;;;5070034;28;20029;-56
2023/12/27 02:22:12;;;;;;;12.00;11.40;;;;;;;;;;5067027;28;20397;-58
2023/12/27 02:24:39;;;;;;;12.23;11.63;;;;;;;;;;5072432;28;20012;-57
2023/12/27 02:27:04;;;;;;;11.98;11.38;;;;;;;;;;5065760;28;20604;-58
2023/12/27 02:29:30;;;;;;;11.55;11.05;;;;;;;;;;5073170;28;20046;-57
2023/12/27 02:31:55;;;;;;;11.60;11.10;;;;;;;;;;5066846;28;20017;-57
2023/12/27 02:34:21;;;;;;;11.85;11.32;;;;;;;;;;5069917;28;20025;-55
2023/12/27 02:36:47;;;;;;;11.75;11.25;;;;;;;;;;5070463;28;20095;-55
2023/12/27 02:39:12;;;;;;;12.55;11.95;;;;;;;;;;5068187;28;20056;-57
2023/12/27 02:41:39;;;;;;;11.77;11.25;;;;;;;;;;5072343;28;20427;-56
2023/12/27 02:44:04;;;;;;;11.90;11.30;;;;;;;;;;5072209;28;20047;-58
2023/12/27 02:46:33;;;;;;;11.50;11.00;;;;;;;;;;5072816;28;20047;-55
2023/12/27 02:48:58;;;;;;;12.07;11.48;;;;;;;;;;5070640;28;20093;-56
2023/12/27 02:51:24;;;;;;;11.60;11.10;;;;;;;;;;5072069;28;20667;-56
2023/12/27 02:53:49;;;;;;;12.15;11.55;;;;;;;;;;5070411;28;20036;-57
2023/12/27 02:56:14;;;;;;;11.57;11.07;;;;;;;;;;5072500;28;20020;-57
2023/12/27 02:58:40;;;;;;;11.82;11.32;;;;;;;;;;5070469;28;20031;-56
2023/12/27 03:01:05;;;;;;;12.20;11.60;;;;;;;;;;5074508;28;20082;-56
2023/12/27 03:03:31;;;;;;;11.40;10.90;;;;;;;;;;5071857;28;20376;-56
2023/12/27 03:05:56;;;;;;;11.60;11.10;;;;;;;;;;5069836;28;20017;-55
2023/12/27 03:08:21;;;;;;;11.60;11.10;;;;;;;;;;5071250;28;20502;-57
2023/12/27 03:10:47;;;;;;;11.93;11.32;;;;;;;;;;5071965;28;20059;-57
2023/12/27 03:13:12;;;;;;;12.18;11.57;;;;;;;;;;5068466;28;20173;-59
2023/12/27 03:15:38;;;;;;;11.60;11.10;;;;;;;;;;5070571;28;20483;-56
2023/12/27 03:18:03;;;;;;;11.93;11.38;;;;;;;;;;5071941;28;20020;-57
2023/12/27 03:20:28;;;;;;;11.95;11.38;;;;;;;;;;5069881;28;20021;-55
2023/12/27 03:22:54;;;;;;;11.75;11.25;;;;;;;;;;5067467;28;20086;-55
2023/12/27 03:25:19;;;;;;;12.00;11.40;;;;;;;;;;5069613;28;20021;-58
2023/12/27 03:27:44;;;;;;;12.10;11.50;;;;;;;;;;5070645;28;20025;-57
2023/12/27 03:30:10;;;;;;;11.10;10.60;;;;;;;;;;5075951;28;20391;-56
2023/12/27 03:32:35;;;;;;;11.57;11.07;;;;;;;;;;5067760;28;20480;-56
2023/12/27 03:35:01;;;;;;;11.55;11.05;;;;;;;;;;5071442;28;20081;-57
2023/12/27 03:37:26;;;;;;;12.10;11.50;;;;;;;;;;5064387;28;20470;-56
2023/12/27 03:39:51;;;;;;;11.50;11.00;;;;;;;;;;5071141;28;20383;-56
2023/12/27 03:42:19;;;;;;;11.82;11.30;;;;;;;;;;5071008;28;20426;-58
2023/12/27 03:44:45;;;;;;;11.70;11.20;;;;;;;;;;5070012;28;20074;-54
2023/12/27 03:47:10;;;;;;;11.45;10.95;;;;;;;;;;5068773;28;20032;-52
2023/12/27 03:49:37;;;;;;;11.70;11.20;;;;;;;;;;5071136;28;20017;-53
2023/12/27 03:52:02;;;;;;;11.43;10.93;;;;;;;;;;5072058;28;20416;-56
2023/12/27 03:54:27;;;;;;;12.10;11.50;;;;;;;;;;5071309;28;20022;-57
2023/12/27 03:56:53;;;;;;;12.05;11.45;;;;;;;;;;5063444;28;20067;-57
2023/12/27 03:59:18;;;;;;;12.30;11.70;;;;;;;;;;5065664;28;20024;-56
2023/12/27 04:01:43;;;;;;;11.23;10.73;;;;;;;;;;5072417;28;20357;-57
2023/12/27 04:04:10;;;;;;;11.13;10.63;;;;;;;;;;5071071;28;20016;-58
2023/12/27 04:06:35;;;;;;;11.35;10.85;;;;;;;;;;5065181;28;20032;-56
2023/12/27 04:09:01;;;;;;;11.50;11.00;;;;;;;;;;5062753;28;20028;-57
2023/12/27 04:11:26;;;;;;;11.40;10.90;;;;;;;;;;5069781;28;20480;-58
2023/12/27 04:13:51;;;;;;;12.02;11.43;;;;;;;;;;5068194;28;20575;-57
2023/12/27 04:16:17;;;;;;;11.65;11.15;;;;;;;;;;5068918;28;20052;-56
2023/12/27 04:18:42;;;;;;;11.60;11.10;;;;;;;;;;5076020;28;20472;-56
2023/12/27 04:21:07;;;;;;;11.38;10.88;;;;;;;;;;5070396;28;20027;-59
2023/12/27 04:23:33;;;;;;;11.57;11.07;;;;;;;;;;5069070;28;20127;-57
2023/12/27 04:25:58;;;;;;;11.55;11.05;;;;;;;;;;5071250;28;20426;-55
2023/12/27 04:28:23;;;;;;;11.40;10.90;;;;;;;;;;5070873;28;20028;-56
2023/12/27 04:30:49;;;;;;;11.60;11.10;;;;;;;;;;5063766;28;20027;-58
2023/12/27 04:33:14;;;;;;;11.23;10.73;;;;;;;;;;5070409;28;20552;-54
2023/12/27 04:35:40;;;;;;;11.40;10.90;;;;;;;;;;5070887;28;20032;-57
2023/12/27 04:38:05;;;;;;;11.50;11.00;;;;;;;;;;5063323;28;20090;-56
2023/12/27 04:40:30;;;;;;;11.60;11.10;;;;;;;;;;5067046;28;20024;-56
2023/12/27 04:42:56;;;;;;;12.45;11.85;;;;;;;;;;5068272;28;20031;-59
2023/12/27 04:45:21;;;;;;;11.63;11.13;;;;;;;;;;5068020;28;20025;-57
2023/12/27 04:47:46;;;;;;;11.27;10.77;;;;;;;;;;5069928;28;20089;-56
2023/12/27 04:50:12;;;;;;;11.32;10.82;;;;;;;;;;5070712;28;20063;-55
2023/12/27 04:52:37;;;;;;;11.70;11.18;;;;;;;;;;5070441;28;20029;-59
2023/12/27 04:55:02;;;;;;;12.27;11.68;;;;;;;;;;5068732;28;20017;-58
2023/12/27 04:57:28;;;;;;;11.68;11.13;;;;;;;;;;5064647;28;20115;-57
2023/12/27 04:59:53;;;;;;;11.90;11.30;;;;;;;;;;5069643;28;20021;-59
2023/12/27 05:02:18;;;;;;;11.60;11.10;;;;;;;;;;5068414;28;20017;-57
2023/12/27 05:04:44;;;;;;;11.95;11.35;;;;;;;;;;5070115;28;20024;-56
2023/12/27 05:07:09;;;;;;;12.07;11.48;;;;;;;;;;5065584;28;20483;-57
2023/12/27 05:09:34;;;;;;;11.82;11.27;;;;;;;;;;5060487;28;20324;-57
2023/12/27 05:12:01;;;;;;;11.70;11.20;;;;;;;;;;5070085;28;20087;-57
2023/12/27 05:14:26;;;;;;;11.55;11.05;;;;;;;;;;5070623;28;20024;-58
2023/12/27 05:16:55;;;;;;;11.43;10.93;;;;;;;;;;5070158;28;20458;-57
2023/12/27 05:19:20;;;;;;;11.40;10.90;;;;;;;;;;5070543;28;20024;-57
2023/12/27 05:21:45;;;;;;;11.40;10.90;;;;;;;;;;5069332;28;20025;-56
2023/12/27 05:24:11;;;;;;;11.02;10.52;;;;;;;;;;5070024;28;20023;-57
2023/12/27 05:26:36;;;;;;;11.50;11.00;;;;;;;;;;5070269;28;20112;-58
2023/12/27 05:29:01;;;;;;;12.02;11.43;;;;;;;;;;5071061;28;20405;-58
2023/12/27 05:31:27;;;;;;;11.88;11.27;;;;;;;;;;5073886;28;20681;-56
2023/12/27 05:33:53;;;;;;;11.30;10.80;;;;;;;;;;5069472;28;20021;-56
2023/12/27 05:36:18;;;;;;;11.70;11.20;;;;;;;;;;5072929;28;20043;-58
2023/12/27 05:38:43;;;;;;;11.65;11.10;;;;;;;;;;5069931;28;20012;-59
2023/12/27 05:41:09;;;;;;;11.70;11.15;;;;;;;;;;5072718;28;20021;-56
2023/12/27 05:43:34;;;;;;;11.70;11.10;;;;;;;;;;5070420;28;20031;-58
2023/12/27 05:46:00;;;;;;;11.30;10.80;;;;;;;;;;5073928;28;20509;-57
2023/12/27 05:48:25;;;;;;;11.40;10.90;;;;;;;;;;5072851;28;20492;-57
2023/12/27 05:50:50;;;;;;;11.40;10.90;;;;;;;;;;5072721;28;20033;-57
2023/12/27 05:53:16;;;;;;;11.20;10.70;;;;;;;;;;5069140;28;20047;-58
2023/12/27 05:55:41;;;;;;;11.80;11.20;;;;;;;;;;5069261;28;20024;-58
2023/12/27 05:58:06;;;;;;;12.10;11.50;;;;;;;;;;5073813;28;20060;-57
2023/12/27 06:00:32;;;;;;;12.57;11.98;;;;;;;;;;5068527;28;20067;-56
2023/12/27 06:02:57;;;;;;;11.63;11.13;;;;;;;;;;5071492;28;20058;-56
2023/12/27 06:05:23;;;;;;;11.73;11.13;;;;;;;;;;5071991;28;20024;-57
2023/12/27 06:07:48;;;;;;;12.07;11.48;;;;;;;;;;5065233;28;20027;-58
2023/12/27 06:10:14;;;;;;;11.55;11.05;;;;;;;;;;5066136;28;20017;-57
2023/12/27 06:12:40;;;;;;;11.77;11.18;;;;;;;;;;5071258;28;20040;-58
2023/12/27 06:15:07;;;;;;;11.10;10.60;;;;;;;;;;5070788;28;20519;-57
2023/12/27 06:17:32;;;;;;;11.50;11.00;;;;;;;;;;5067531;28;20045;-57
2023/12/27 06:19:58;;;;;;;10.75;10.25;;;;;;;;;;5072687;28;20023;-57
2023/12/27 06:22:24;;;;;;;11.30;10.80;;;;;;;;;;5069139;28;20028;-57
2023/12/27 06:24:49;;;;;;;12.23;11.63;;;;;;;;;;5065894;28;20020;-58
2023/12/27 06:27:15;;;;;;;12.10;11.50;;;;;;;;;;5072101;28;20016;-57
2023/12/27 06:29:41;;;;;;;12.05;11.45;;;;;;;;;;5072709;28;20020;-59
2023/12/27 06:32:06;;;;;;;11.35;10.85;;;;;;;;;;5070671;28;20012;-56
2023/12/27 06:34:32;;;;;;;12.00;11.40;;;;;;;;;;5072048;28;20028;-59
2023/12/27 06:36:57;;;;;;;11.35;10.85;;;;;;;;;;5070205;28;20028;-54
2023/12/27 06:39:23;;;;;;;12.00;11.40;;;;;;;;;;5066406;28;20017;-57
2023/12/27 06:41:48;;;;;;;11.40;10.90;;;;;;;;;;5070248;28;20476;-58
2023/12/27 06:44:13;;;;;;;11.35;10.85;;;;;;;;;;5073909;28;20468;-58
2023/12/27 06:46:39;;;;;;;12.02;11.43;;;;;;;;;;5065122;28;20070;-58
2023/12/27 06:49:04;;;;;;;11.23;10.73;;;;;;;;;;5061884;28;20074;-57
2023/12/27 06:51:29;;;;;;;11.07;10.57;;;;;;;;;;5073347;28;20530;-55
2023/12/27 06:53:55;;;;;;;12.10;11.50;;;;;;;;;;5062004;28;20028;-56
2023/12/27 06:56:20;;;;;;;11.68;11.10;;;;;;;;;;5075653;28;20024;-57
2023/12/27 06:58:45;;;;;;;11.43;10.93;;;;;;;;;;5072813;28;20333;-58
2023/12/27 07:01:11;;;;;;;11.90;11.30;;;;;;;;;;5070692;28;20027;-57
2023/12/27 07:03:37;;;;;;;11.15;10.65;;;;;;;;;;5065084;28;20438;-57
2023/12/27 07:06:02;;;;;;;11.40;10.90;;;;;;;;;;5072308;28;20074;-58
2023/12/27 07:08:30;;;;;;;11.13;10.63;;;;;;;;;;5068710;28;20055;-57
2023/12/27 07:10:55;;;;;;;11.45;10.95;;;;;;;;;;5068436;28;20032;-57
2023/12/27 07:13:20;;;;;;;11.60;11.10;;;;;;;;;;5069561;28;20028;-58
2023/12/27 07:15:46;;;;;;;12.02;11.52;;;;;;;;;;5071559;28;20575;-59
2023/12/27 07:18:11;;;;;;;12.10;11.60;;;;;;;;;;5065238;28;20561;-58
2023/12/27 07:20:36;;;;;;;12.18;11.68;;;;;;;;;;5071682;28;20020;-58
2023/12/27 07:23:03;;;;;;;12.82;12.23;;;;;;;;;;5069726;28;20360;-56
2023/12/27 07:25:28;;;;;;;12.75;12.15;;;;;;;;;;5071776;28;20021;-59
2023/12/27 07:27:53;;;;;;;12.77;12.18;;;;;;;;;;5065779;28;20497;-59
2023/12/27 07:30:19;;;;;;;12.85;12.25;;;;;;;;;;5056692;28;20421;-58
2023/12/27 07:32:44;;;;;;;13.10;12.50;;;;;;;;;;5067299;28;20510;-57
2023/12/27 07:35:10;;;;;;;13.07;12.48;;;;;;;;;;5068783;28;20395;-59
2023/12/27 07:37:35;;;;;;;13.27;12.68;;;;;;;;;;5064862;28;20052;-59
2023/12/27 07:40:01;;;;;;;13.30;12.70;;;;;;;;;;5070867;28;20016;-58
2023/12/27 07:42:26;;;;;;;13.30;12.70;;;;;;;;;;5065265;28;20017;-57
2023/12/27 07:44:52;;;;;;;13.15;12.55;;;;;;;;;;5069374;28;20028;-58
2023/12/27 07:47:17;;;;;;;13.10;12.50;;;;;;;;;;5070459;28;20020;-57
2023/12/27 07:49:42;;;;;;;13.10;12.50;;;;;;;;;;5069749;28;20028;-60
2023/12/27 07:52:08;;;;;;;13.55;12.95;;;;;;;;;;5064065;28;20464;-59
2023/12/27 07:54:35;;;;;;;13.45;12.85;;;;;;;;;;5070788;28;20472;-59
2023/12/27 07:57:01;;;;;;;13.30;12.70;;;;;;;;;;5071253;28;20032;-58
2023/12/27 07:59:26;;;;;;;13.48;12.88;;;;;;;;;;5066476;28;20031;-58
2023/12/27 08:01:52;;;;;;;13.82;13.23;;;;;;;;;;5071381;28;20682;-58
2023/12/27 08:04:17;;;;;;;13.63;13.02;;;;;;;;;;5069117;28;20495;-59
2023/12/27 08:06:42;;;;;;;13.02;12.43;;;;;;;;;;5071360;28;20020;-59
2023/12/27 08:09:08;;;;;;;13.20;12.60;;;;;;;;;;5068746;28;20024;-59
2023/12/27 08:11:34;;;;;;;12.73;12.13;;;;;;;;;;5075866;28;20084;-58
2023/12/27 08:13:59;;;;;;;13.45;12.85;;;;;;;;;;5069583;28;20484;-58
2023/12/27 08:16:24;;;;;;;13.18;12.57;;;;;;;;;;5064697;28;20127;-57
2023/12/27 08:18:50;;;;;;;13.35;12.75;;;;;;;;;;5068918;28;20025;-59
2023/12/27 08:21:17;;;;;;;13.18;12.57;;;;;;;;;;5071494;28;20048;-58
2023/12/27 08:23:42;;;;;;;13.05;12.45;;;;;;;;;;5066320;28;20017;-59
2023/12/27 08:26:08;;;;;;;13.32;12.73;;;;;;;;;;5069594;28;20020;-57
2023/12/27 08:28:36;;;;;;;12.98;12.38;;;;;;;;;;5070034;28;20074;-57
2023/12/27 08:31:04;;;;;;;13.68;13.07;;;;;;;;;;5068542;28;20016;-58
2023/12/27 08:33:31;;;;;;;13.23;12.63;;;;;;;;;;5070460;28;20023;-58
2023/12/27 08:35:56;;;;;;;13.07;12.48;;;;;;;;;;5070387;28;20456;-57
2023/12/27 08:38:23;;;;;;;13.65;13.05;;;;;;;;;;5066158;28;20048;-58
2023/12/27 08:40:49;;;;;;;12.80;12.20;;;;;;;;;;5069887;28;20024;-58
2023/12/27 08:43:14;;;;;;;12.93;12.32;;;;;;;;;;5070472;28;20470;-59
2023/12/27 08:45:39;;;;;;;12.80;12.20;;;;;;;;;;5068047;28;20025;-59
2023/12/27 08:48:06;;;;;;;13.10;12.50;;;;;;;;;;5065068;28;20028;-58
2023/12/27 08:50:32;;;;;;;13.48;12.88;;;;;;;;;;5070163;28;20099;-57
2023/12/27 08:52:57;;;;;;;13.98;13.27;;;;;;;;;;5067913;28;20099;-58
2023/12/27 08:55:22;;;;;;;13.15;12.55;;;;;;;;;;5067563;28;20046;-58
2023/12/27 08:57:48;;;;;;;12.90;12.30;;;;;;;;;;5082353;28;20039;-58
2023/12/27 09:00:13;;;;;;;13.15;12.55;;;;;;;;;;5071611;28;20020;-58
2023/12/27 09:02:39;;;;;;;12.73;12.13;;;;;;;;;;5073764;28;20066;-57
2023/12/27 09:05:05;;;;;;;12.50;11.90;;;;;;;;;;5069577;28;20013;-57
2023/12/27 09:07:31;;;;;;;13.02;12.43;;;;;;;;;;5072745;28;20435;-58
2023/12/27 09:09:57;;;;;;;12.40;11.80;;;;;;;;;;5067793;28;20100;-58
2023/12/27 09:12:22;;;;;;;12.65;12.05;;;;;;;;;;5070945;28;20017;-57
2023/12/27 09:14:47;;;;;;;12.95;12.35;;;;;;;;;;5064146;28;20029;-57
2023/12/27 09:17:15;;;;;;;12.70;12.10;;;;;;;;;;5073666;28;20078;-60
2023/12/27 09:19:41;;;;;;;12.70;12.10;;;;;;;;;;5070888;28;20123;-57
2023/12/27 09:22:07;;;;;;;13.15;12.55;;;;;;;;;;5073686;28;20044;-57
2023/12/27 09:24:32;;;;;;;13.27;12.68;;;;;;;;;;5070978;28;20468;-59
2023/12/27 09:26:58;;;;;;;12.70;12.10;;;;;;;;;;5069712;28;20031;-58
2023/12/27 09:29:23;;;;;;;12.77;12.18;;;;;;;;;;5070747;28;20024;-59
2023/12/27 09:31:49;;;;;;;12.60;12.00;;;;;;;;;;5073474;28;20024;-56
2023/12/27 09:34:14;;;;;;;12.35;11.75;;;;;;;;;;5073346;28;20161;-60
2023/12/27 09:36:39;;;;;;;12.40;11.80;;;;;;;;;;5069215;28;20449;-59
2023/12/27 09:39:05;;;;;;;12.60;12.00;;;;;;;;;;5073440;28;20039;-58
2023/12/27 09:41:31;;;;;;;12.57;11.98;;;;;;;;;;5068541;28;20499;-58
2023/12/27 09:43:57;;;;;;;12.75;12.15;;;;;;;;;;5073090;28;20016;-58
2023/12/27 09:46:24;;;;;;;13.02;12.43;;;;;;;;;;5072455;28;20380;-58
2023/12/27 09:48:50;;;;;;;12.75;12.15;;;;;;;;;;5073299;28;20043;-58
2023/12/27 09:51:22;;;;;;;12.57;11.98;;;;;;;;;;5072786;28;20074;-56
2023/12/27 09:53:48;;;;;;;12.77;12.18;;;;;;;;;;5073359;28;20036;-59
2023/12/27 09:56:14;;;;;;;13.65;12.95;;;;;;;;;;5072061;28;20012;-57
2023/12/27 09:58:39;;;;;;;12.90;12.30;;;;;;;;;;5066823;28;20025;-58
2023/12/27 10:01:05;;;;;;;13.00;12.40;;;;;;;;;;5072398;28;20050;-59
2023/12/27 10:03:40;;;;;;;13.63;12.93;;;;;;;;;;5072893;28;20047;-63
2023/12/27 10:06:26;;;;;;;12.80;12.20;;;;;;;;;;5070268;28;20103;-57
2023/12/27 10:08:51;;;;;;;13.93;13.23;;;;;;;;;;5071297;28;20035;-57
2023/12/27 10:11:18;;;;;;;13.05;12.45;;;;;;;;;;5071435;28;20103;-57
2023/12/27 10:13:44;;;;;;;12.77;12.18;;;;;;;;;;5072948;28;20074;-58
2023/12/27 10:16:10;;;;;;;12.55;11.95;;;;;;;;;;5070994;28;20045;-58
2023/12/27 10:18:35;;;;;;;12.68;12.07;;;;;;;;;;5072193;28;20036;-57
2023/12/27 10:21:01;;;;;;;12.38;11.77;;;;;;;;;;5073043;28;20025;-58
2023/12/27 10:23:26;;;;;;;14.07;13.38;;;;;;;;;;5070079;28;20430;-58
2023/12/27 10:25:52;;;;;;;12.90;12.30;;;;;;;;;;5072517;28;20024;-57
2023/12/27 10:28:22;;;;;;;13.45;12.75;;;;;;;;;;5071434;28;20028;-59
2023/12/27 10:30:47;;;;;;;12.90;12.30;;;;;;;;;;5063941;28;20028;-56
2023/12/27 10:33:13;;;;;;;12.25;11.65;;;;;;;;;;5068481;28;20405;-58
2023/12/27 10:35:38;;;;;;;12.80;12.20;;;;;;;;;;5072877;28;20651;-57
2023/12/27 10:38:04;;;;;;;12.77;12.18;;;;;;;;;;5070640;28;20116;-58
2023/12/27 10:40:30;;;;;;;13.13;12.52;;;;;;;;;;5065200;28;20460;-57
2023/12/27 10:42:56;;;;;;;12.48;11.88;;;;;;;;;;5072424;28;20020;-57
2023/12/27 10:45:21;;;;;;;12.43;11.82;;;;;;;;;;5072755;28;20048;-56
2023/12/27 10:47:55;;;;;;;11.70;11.20;;;;;;;;;;5068333;28;20476;-59
2023/12/27 10:50:21;;;;;;;12.50;11.90;;;;;;;;;;5071674;28;20024;-59
2023/12/27 10:52:51;;;;;;;12.18;11.57;;;;;;;;;;5064015;28;20207;-59
2023/12/27 10:55:18;;;;;;;12.50;11.90;;;;;;;;;;5072302;28;20036;-58
2023/12/27 10:57:45;;;;;;;12.30;11.70;;;;;;;;;;5064566;28;20020;-59
2023/12/27 11:00:12;;;;;;;11.77;11.27;;;;;;;;;;5072716;28;20021;-57
2023/12/27 11:02:38;;;;;;;11.82;11.30;;;;;;;;;;5070414;28;20104;-57
2023/12/27 11:05:05;;;;;;;12.40;11.80;;;;;;;;;;5069803;28;20020;-59
2023/12/27 11:07:32;;;;;;;12.57;11.98;;;;;;;;;;5071790;28;20020;-59
2023/12/27 11:09:58;;;;;;;12.20;11.60;;;;;;;;;;5071331;28;20056;-57
2023/12/27 11:12:24;;;;;;;12.10;11.50;;;;;;;;;;5071642;28;20429;-57
2023/12/27 11:14:50;;;;;;;12.63;12.02;;;;;;;;;;5071627;28;20096;-55
2023/12/27 11:17:19;;;;;;;12.57;11.98;;;;;;;;;;5071748;28;20063;-59
2023/12/27 11:19:47;;;;;;;12.40;11.80;;;;;;;;;;5070954;28;20066;-56
2023/12/27 11:22:12;;;;;;;12.80;12.20;;;;;;;;;;5070156;28;20024;-57
2023/12/27 11:24:39;;;;;;;13.55;12.85;;;;;;;;;;5071275;28;20024;-57
2023/12/27 11:27:04;;;;;;;12.80;12.20;;;;;;;;;;5071319;28;20047;-57
2023/12/27 11:29:30;;;;;;;12.60;12.00;;;;;;;;;;5070999;28;20024;-58
2023/12/27 11:31:58;;;;;;;12.35;11.75;;;;;;;;;;5071449;28;20483;-56
2023/12/27 11:34:23;;;;;;;12.40;11.80;;;;;;;;;;5066251;28;20028;-58
2023/12/27 11:36:50;;;;;;;12.48;11.88;;;;;;;;;;5071024;28;20070;-57
2023/12/27 11:39:17;;;;;;;12.40;11.80;;;;;;;;;;5071368;28;20361;-60
2023/12/27 11:41:43;;;;;;;12.20;11.63;;;;;;;;;;5071232;28;20065;-57
2023/12/27 11:44:08;;;;;;;11.73;11.23;;;;;;;;;;5061636;28;20017;-58
2023/12/27 11:46:34;;;;;;;12.18;11.57;;;;;;;;;;5071338;28;20019;-58
2023/12/27 11:48:59;;;;;;;12.35;11.75;;;;;;;;;;5058562;28;20024;-59
2023/12/27 11:51:29;;;;;;;12.23;11.63;;;;;;;;;;5072143;28;20027;-54
2023/12/27 11:53:55;;;;;;;12.50;11.90;;;;;;;;;;5068256;28;20027;-58
2023/12/27 11:56:20;;;;;;;12.55;11.95;;;;;;;;;;5069509;28;20033;-58
2023/12/27 11:58:46;;;;;;;12.23;11.63;;;;;;;;;;5068226;28;20032;-58
2023/12/27 12:01:24;;;;;;;12.32;11.73;;;;;;;;;;5067428;28;20019;-57
2023/12/27 12:04:00;;;;;;;12.60;12.00;;;;;;;;;;5068609;28;20043;-58
2023/12/27 12:06:28;;;;;;;12.60;12.00;;;;;;;;;;5070588;28;20516;-58
2023/12/27 12:08:54;;;;;;;12.88;12.27;;;;;;;;;;5067112;28;20103;-58
2023/12/27 12:11:21;;;;;;;12.30;11.70;;;;;;;;;;5065165;28;20464;-59
2023/12/27 12:13:47;;;;;;;12.50;11.90;;;;;;;;;;5066755;28;20028;-57
2023/12/27 12:16:13;;;;;;;12.50;11.90;;;;;;;;;;5073275;28;20048;-59
2023/12/27 12:18:39;;;;;;;12.38;11.77;;;;;;;;;;5070759;28;20017;-60
2023/12/27 12:21:04;;;;;;;12.02;11.48;;;;;;;;;;5067345;28;20021;-57
2023/12/27 12:23:30;;;;;;;11.75;11.25;;;;;;;;;;5071036;28;20534;-59
2023/12/27 12:26:00;;;;;;;11.90;11.40;;;;;;;;;;5055523;28;20503;-57
2023/12/27 12:28:26;;;;;;;12.02;11.48;;;;;;;;;;5069178;28;20073;-58
2023/12/27 12:30:52;;;;;;;12.45;11.85;;;;;;;;;;5074724;28;20498;-57
2023/12/27 12:33:17;;;;;;;11.95;11.40;;;;;;;;;;5069527;28;20033;-57
2023/12/27 12:35:42;;;;;;;12.93;12.32;;;;;;;;;;5074200;28;20474;-58
2023/12/27 12:38:08;;;;;;;13.27;12.68;;;;;;;;;;5074949;28;20029;-55
2023/12/27 12:40:33;;;;;;;12.65;12.05;;;;;;;;;;5074316;28;20035;-58
2023/12/27 12:42:59;;;;;;;13.23;12.63;;;;;;;;;;5073682;28;20016;-56
2023/12/27 12:45:25;;;;;;;12.52;11.93;;;;;;;;;;5073523;28;20020;-59
2023/12/27 12:47:50;;;;;;;12.90;12.30;;;;;;;;;;5074476;28;20052;-57
2023/12/27 12:50:19;;;;;;;13.15;12.55;;;;;;;;;;5074983;28;20024;-57
2023/12/27 12:52:45;;;;;;;12.70;12.10;;;;;;;;;;5067271;28;20028;-57
2023/12/27 12:55:11;;;;;;;12.70;12.10;;;;;;;;;;5071808;28;20128;-58
2023/12/27 12:57:36;;;;;;;12.82;12.23;;;;;;;;;;5076475;28;20106;-59
2023/12/27 13:00:02;;;;;;;12.35;11.75;;;;;;;;;;5077860;28;20480;-59
2023/12/27 13:02:27;;;;;;;12.30;11.70;;;;;;;;;;5070697;28;20104;-56
2023/12/27 13:04:53;;;;;;;12.88;12.27;;;;;;;;;;5074182;28;20028;-58
2023/12/27 13:07:20;;;;;;;12.85;12.25;;;;;;;;;;5072350;28;20037;-57
2023/12/27 13:09:55;;;;;;;11.98;11.43;;;;;;;;;;5069449;28;20017;-58
2023/12/27 13:12:22;;;;;;;12.73;12.13;;;;;;;;;;5068776;28;20582;-56
2023/12/27 13:14:47;;;;;;;12.45;11.85;;;;;;;;;;5074274;28;20038;-59
2023/12/27 13:17:13;;;;;;;11.95;11.43;;;;;;;;;;5069409;28;20547;-57
2023/12/27 13:19:38;;;;;;;13.18;12.57;;;;;;;;;;5070160;28;20019;-57
2023/12/27 13:22:03;;;;;;;12.27;11.68;;;;;;;;;;5070894;28;20012;-59
2023/12/27 13:24:29;;;;;;;13.50;12.80;;;;;;;;;;5071780;28;20027;-58
2023/12/27 13:26:55;;;;;;;12.90;12.30;;;;;;;;;;5072911;28;20028;-57
2023/12/27 13:29:20;;;;;;;12.88;12.27;;;;;;;;;;5072753;28;20028;-60
2023/12/27 13:31:46;;;;;;;13.07;12.48;;;;;;;;;;5072461;28;20032;-59
2023/12/27 13:34:11;;;;;;;12.20;11.60;;;;;;;;;;5065966;28;20043;-60
2023/12/27 13:36:36;;;;;;;12.13;11.52;;;;;;;;;;5068443;28;20030;-58
2023/12/27 13:39:02;;;;;;;12.43;11.82;;;;;;;;;;5072689;28;20044;-57
2023/12/27 13:41:27;;;;;;;12.10;11.50;;;;;;;;;;5067700;28;20429;-56
2023/12/27 13:43:53;;;;;;;11.93;11.40;;;;;;;;;;5071049;28;20012;-58
2023/12/27 13:46:19;;;;;;;12.20;11.60;;;;;;;;;;5071863;28;20035;-59
2023/12/27 13:48:44;;;;;;;12.43;11.82;;;;;;;;;;5069874;28;20398;-58
2023/12/27 13:51:10;;;;;;;12.18;11.57;;;;;;;;;;5070348;28;20039;-58
2023/12/27 13:53:36;;;;;;;11.75;11.25;;;;;;;;;;5065392;28;20017;-57
2023/12/27 13:56:01;;;;;;;12.45;11.85;;;;;;;;;;5075007;28;20036;-59
2023/12/27 13:58:28;;;;;;;12.48;11.88;;;;;;;;;;5073152;28;20399;-56
2023/12/27 14:00:54;;;;;;;11.85;11.35;;;;;;;;;;5073285;28;20028;-56
2023/12/27 14:03:19;;;;;;;12.18;11.57;;;;;;;;;;5073316;28;20021;-56
2023/12/27 14:05:45;;;;;;;12.10;11.50;;;;;;;;;;5071621;28;20016;-57
2023/12/27 14:08:10;;;;;;;12.35;11.75;;;;;;;;;;5072362;28;20044;-55